sensor_id;sensor_type;location;lat;lon;timestamp;P1;durP1;ratioP1;P2;durP2;ratioP2
15848;SDS011;8024;48.708;9.394;2023-09-30T00:02:09;6.87;;;3.07;;
15848;SDS011;8024;48.708;9.394;2023-09-30T00:04:37;7.20;;;3.10;;
15848;SDS011;8024;48.708;9.394;2023-09-30T00:07:04;5.60;;;2.70;;
15848;SDS011;8024;48.708;9.394;2023-09-30T00:09:33;7.10;;;2.83;;
15848;SDS011;8024;48.708;9.394;2023-09-30T00:12:00;8.87;;;2.97;;
15848;SDS011;8024;48.708;9.394;2023-09-30T00:14:27;5.77;;;2.40;;
15848;SDS011;8024;48.708;9.394;2023-09-30T00:16:54;5.43;;;2.30;;
15848;SDS011;8024;48.708;9.394;2023-09-30T00:19:21;6.87;;;3.00;;
15848;SDS011;8024;48.708;9.394;2023-09-30T00:21:48;5.97;;;2.70;;
15848;SDS011;8024;48.708;9.394;2023-09-30T00:24:16;6.90;;;3.47;;
15848;SDS011;8024;48.708;9.394;2023-09-30T00:26:44;5.67;;;1.93;;
15848;SDS011;8024;48.708;9.394;2023-09-30T00:29:12;6.40;;;2.27;;
15848;SDS011;8024;48.708;9.394;2023-09-30T00:31:39;6.17;;;2.40;;
15848;SDS011;8024;48.708;9.394;2023-09-30T00:34:06;5.03;;;2.27;;
15848;SDS011;8024;48.708;9.394;2023-09-30T00:36:34;7.73;;;3.00;;
15848;SDS011;8024;48.708;9.394;2023-09-30T00:39:01;5.87;;;2.57;;
15848;SDS011;8024;48.708;9.394;2023-09-30T00:41:29;5.40;;;2.10;;
15848;SDS011;8024;48.708;9.394;2023-09-30T00:43:57;5.33;;;2.40;;
15848;SDS011;8024;48.708;9.394;2023-09-30T00:46:26;7.70;;;2.77;;
15848;SDS011;8024;48.708;9.394;2023-09-30T00:48:55;5.57;;;2.13;;
15848;SDS011;8024;48.708;9.394;2023-09-30T00:51:24;4.83;;;2.10;;
15848;SDS011;8024;48.708;9.394;2023-09-30T00:53:52;4.63;;;2.03;;
15848;SDS011;8024;48.708;9.394;2023-09-30T00:56:21;4.17;;;2.37;;
15848;SDS011;8024;48.708;9.394;2023-09-30T00:58:51;4.23;;;2.20;;
15848;SDS011;8024;48.708;9.394;2023-09-30T01:01:20;4.47;;;2.73;;
15848;SDS011;8024;48.708;9.394;2023-09-30T01:03:48;6.53;;;2.53;;
15848;SDS011;8024;48.708;9.394;2023-09-30T01:06:16;6.37;;;2.27;;
15848;SDS011;8024;48.708;9.394;2023-09-30T01:08:43;6.33;;;2.40;;
15848;SDS011;8024;48.708;9.394;2023-09-30T01:11:11;5.80;;;2.70;;
15848;SDS011;8024;48.708;9.394;2023-09-30T01:13:39;6.77;;;2.27;;
15848;SDS011;8024;48.708;9.394;2023-09-30T01:16:08;7.53;;;2.40;;
15848;SDS011;8024;48.708;9.394;2023-09-30T01:18:38;7.17;;;2.40;;
15848;SDS011;8024;48.708;9.394;2023-09-30T01:21:08;3.90;;;2.30;;
15848;SDS011;8024;48.708;9.394;2023-09-30T01:23:37;6.07;;;2.53;;
15848;SDS011;8024;48.708;9.394;2023-09-30T01:26:05;5.37;;;2.23;;
15848;SDS011;8024;48.708;9.394;2023-09-30T01:28:35;7.00;;;2.90;;
15848;SDS011;8024;48.708;9.394;2023-09-30T01:31:02;5.30;;;2.30;;
15848;SDS011;8024;48.708;9.394;2023-09-30T01:33:30;5.60;;;2.50;;
15848;SDS011;8024;48.708;9.394;2023-09-30T01:35:58;4.90;;;2.27;;
15848;SDS011;8024;48.708;9.394;2023-09-30T01:38:25;5.70;;;2.30;;
15848;SDS011;8024;48.708;9.394;2023-09-30T01:40:54;6.17;;;2.87;;
15848;SDS011;8024;48.708;9.394;2023-09-30T01:43:21;9.47;;;2.80;;
15848;SDS011;8024;48.708;9.394;2023-09-30T01:45:48;7.13;;;2.53;;
15848;SDS011;8024;48.708;9.394;2023-09-30T01:48:15;7.87;;;2.60;;
15848;SDS011;8024;48.708;9.394;2023-09-30T01:50:42;6.13;;;2.47;;
15848;SDS011;8024;48.708;9.394;2023-09-30T01:53:09;6.13;;;2.87;;
15848;SDS011;8024;48.708;9.394;2023-09-30T01:55:37;6.10;;;2.73;;
15848;SDS011;8024;48.708;9.394;2023-09-30T01:58:05;6.43;;;3.13;;
15848;SDS011;8024;48.708;9.394;2023-09-30T02:00:32;7.50;;;2.70;;
15848;SDS011;8024;48.708;9.394;2023-09-30T02:03:00;6.57;;;2.77;;
15848;SDS011;8024;48.708;9.394;2023-09-30T02:05:27;6.67;;;2.87;;
15848;SDS011;8024;48.708;9.394;2023-09-30T02:07:54;7.53;;;2.90;;
15848;SDS011;8024;48.708;9.394;2023-09-30T02:10:22;7.03;;;3.10;;
15848;SDS011;8024;48.708;9.394;2023-09-30T02:12:49;6.13;;;2.67;;
15848;SDS011;8024;48.708;9.394;2023-09-30T02:15:17;4.90;;;2.27;;
15848;SDS011;8024;48.708;9.394;2023-09-30T02:17:45;4.37;;;2.33;;
15848;SDS011;8024;48.708;9.394;2023-09-30T02:20:13;7.87;;;2.83;;
15848;SDS011;8024;48.708;9.394;2023-09-30T02:22:44;5.07;;;2.40;;
15848;SDS011;8024;48.708;9.394;2023-09-30T02:25:12;3.97;;;2.40;;
15848;SDS011;8024;48.708;9.394;2023-09-30T02:27:39;4.93;;;2.43;;
15848;SDS011;8024;48.708;9.394;2023-09-30T02:30:07;5.53;;;2.57;;
15848;SDS011;8024;48.708;9.394;2023-09-30T02:32:38;5.53;;;2.27;;
15848;SDS011;8024;48.708;9.394;2023-09-30T02:35:06;4.07;;;2.10;;
15848;SDS011;8024;48.708;9.394;2023-09-30T02:37:36;5.70;;;2.10;;
15848;SDS011;8024;48.708;9.394;2023-09-30T02:40:03;4.67;;;2.33;;
15848;SDS011;8024;48.708;9.394;2023-09-30T02:42:34;6.03;;;2.30;;
15848;SDS011;8024;48.708;9.394;2023-09-30T02:45:02;4.87;;;2.20;;
15848;SDS011;8024;48.708;9.394;2023-09-30T02:47:30;4.20;;;2.10;;
15848;SDS011;8024;48.708;9.394;2023-09-30T02:49:59;4.10;;;1.80;;
15848;SDS011;8024;48.708;9.394;2023-09-30T02:52:26;5.53;;;1.90;;
15848;SDS011;8024;48.708;9.394;2023-09-30T02:54:54;4.60;;;2.20;;
15848;SDS011;8024;48.708;9.394;2023-09-30T02:57:22;6.23;;;2.10;;
15848;SDS011;8024;48.708;9.394;2023-09-30T02:59:49;3.93;;;1.90;;
15848;SDS011;8024;48.708;9.394;2023-09-30T03:02:17;5.00;;;1.60;;
15848;SDS011;8024;48.708;9.394;2023-09-30T03:04:46;3.83;;;1.60;;
15848;SDS011;8024;48.708;9.394;2023-09-30T03:07:17;3.47;;;1.97;;
15848;SDS011;8024;48.708;9.394;2023-09-30T03:09:46;4.00;;;2.00;;
15848;SDS011;8024;48.708;9.394;2023-09-30T03:12:13;3.63;;;1.53;;
15848;SDS011;8024;48.708;9.394;2023-09-30T03:14:40;4.20;;;1.73;;
15848;SDS011;8024;48.708;9.394;2023-09-30T03:17:09;3.50;;;1.70;;
15848;SDS011;8024;48.708;9.394;2023-09-30T03:19:36;3.20;;;1.77;;
15848;SDS011;8024;48.708;9.394;2023-09-30T03:22:04;3.03;;;1.77;;
15848;SDS011;8024;48.708;9.394;2023-09-30T03:24:37;2.93;;;1.50;;
15848;SDS011;8024;48.708;9.394;2023-09-30T03:27:04;3.13;;;1.50;;
15848;SDS011;8024;48.708;9.394;2023-09-30T03:29:32;4.33;;;2.23;;
15848;SDS011;8024;48.708;9.394;2023-09-30T03:32:01;4.13;;;1.80;;
15848;SDS011;8024;48.708;9.394;2023-09-30T03:34:28;4.90;;;2.37;;
15848;SDS011;8024;48.708;9.394;2023-09-30T03:36:55;5.37;;;2.43;;
15848;SDS011;8024;48.708;9.394;2023-09-30T03:39:24;3.13;;;2.20;;
15848;SDS011;8024;48.708;9.394;2023-09-30T03:41:54;5.70;;;2.97;;
15848;SDS011;8024;48.708;9.394;2023-09-30T03:44:23;4.33;;;2.50;;
15848;SDS011;8024;48.708;9.394;2023-09-30T03:46:50;4.70;;;2.50;;
15848;SDS011;8024;48.708;9.394;2023-09-30T03:49:17;4.57;;;2.50;;
15848;SDS011;8024;48.708;9.394;2023-09-30T03:51:46;4.60;;;2.23;;
15848;SDS011;8024;48.708;9.394;2023-09-30T03:54:15;5.37;;;2.60;;
15848;SDS011;8024;48.708;9.394;2023-09-30T03:56:43;4.80;;;2.53;;
15848;SDS011;8024;48.708;9.394;2023-09-30T03:59:13;4.73;;;2.73;;
15848;SDS011;8024;48.708;9.394;2023-09-30T04:01:41;6.67;;;2.40;;
15848;SDS011;8024;48.708;9.394;2023-09-30T04:04:09;2.47;;;1.70;;
15848;SDS011;8024;48.708;9.394;2023-09-30T04:06:36;4.33;;;1.90;;
15848;SDS011;8024;48.708;9.394;2023-09-30T04:09:04;4.77;;;2.60;;
15848;SDS011;8024;48.708;9.394;2023-09-30T04:11:35;4.67;;;1.97;;
15848;SDS011;8024;48.708;9.394;2023-09-30T04:14:02;4.57;;;2.00;;
15848;SDS011;8024;48.708;9.394;2023-09-30T04:16:31;5.40;;;2.40;;
15848;SDS011;8024;48.708;9.394;2023-09-30T04:18:59;4.60;;;2.20;;
15848;SDS011;8024;48.708;9.394;2023-09-30T04:21:27;3.00;;;2.10;;
15848;SDS011;8024;48.708;9.394;2023-09-30T04:23:55;4.50;;;2.60;;
15848;SDS011;8024;48.708;9.394;2023-09-30T04:26:22;3.00;;;1.77;;
15848;SDS011;8024;48.708;9.394;2023-09-30T04:28:51;3.93;;;2.17;;
15848;SDS011;8024;48.708;9.394;2023-09-30T04:31:19;3.37;;;2.47;;
15848;SDS011;8024;48.708;9.394;2023-09-30T04:33:49;5.80;;;2.60;;
15848;SDS011;8024;48.708;9.394;2023-09-30T04:36:17;3.57;;;2.60;;
15848;SDS011;8024;48.708;9.394;2023-09-30T04:38:45;3.37;;;2.20;;
15848;SDS011;8024;48.708;9.394;2023-09-30T04:41:12;3.10;;;2.40;;
15848;SDS011;8024;48.708;9.394;2023-09-30T04:43:40;5.43;;;2.20;;
15848;SDS011;8024;48.708;9.394;2023-09-30T04:46:08;2.40;;;1.90;;
15848;SDS011;8024;48.708;9.394;2023-09-30T04:48:37;3.57;;;2.53;;
15848;SDS011;8024;48.708;9.394;2023-09-30T04:51:07;4.30;;;2.00;;
15848;SDS011;8024;48.708;9.394;2023-09-30T04:53:36;5.23;;;2.40;;
15848;SDS011;8024;48.708;9.394;2023-09-30T04:56:03;5.03;;;2.33;;
15848;SDS011;8024;48.708;9.394;2023-09-30T04:58:31;2.93;;;2.10;;
15848;SDS011;8024;48.708;9.394;2023-09-30T05:00:58;3.80;;;2.30;;
15848;SDS011;8024;48.708;9.394;2023-09-30T05:03:25;3.57;;;2.27;;
15848;SDS011;8024;48.708;9.394;2023-09-30T05:05:52;6.67;;;2.70;;
15848;SDS011;8024;48.708;9.394;2023-09-30T05:08:22;3.83;;;2.67;;
15848;SDS011;8024;48.708;9.394;2023-09-30T05:10:49;6.03;;;3.90;;
15848;SDS011;8024;48.708;9.394;2023-09-30T05:13:17;4.43;;;3.10;;
15848;SDS011;8024;48.708;9.394;2023-09-30T05:15:44;3.93;;;2.20;;
15848;SDS011;8024;48.708;9.394;2023-09-30T05:18:11;3.90;;;2.63;;
15848;SDS011;8024;48.708;9.394;2023-09-30T05:20:38;3.97;;;2.10;;
15848;SDS011;8024;48.708;9.394;2023-09-30T05:23:06;3.53;;;2.43;;
15848;SDS011;8024;48.708;9.394;2023-09-30T05:25:34;3.93;;;2.30;;
15848;SDS011;8024;48.708;9.394;2023-09-30T05:28:02;4.13;;;2.70;;
15848;SDS011;8024;48.708;9.394;2023-09-30T05:30:30;5.57;;;2.27;;
15848;SDS011;8024;48.708;9.394;2023-09-30T05:32:58;5.53;;;2.90;;
15848;SDS011;8024;48.708;9.394;2023-09-30T05:35:26;2.70;;;2.07;;
15848;SDS011;8024;48.708;9.394;2023-09-30T05:37:53;4.27;;;2.70;;
15848;SDS011;8024;48.708;9.394;2023-09-30T05:40:21;4.83;;;2.93;;
15848;SDS011;8024;48.708;9.394;2023-09-30T05:42:51;3.27;;;2.27;;
15848;SDS011;8024;48.708;9.394;2023-09-30T05:45:21;5.20;;;2.83;;
15848;SDS011;8024;48.708;9.394;2023-09-30T05:47:51;9.53;;;2.83;;
15848;SDS011;8024;48.708;9.394;2023-09-30T05:50:19;3.87;;;2.50;;
15848;SDS011;8024;48.708;9.394;2023-09-30T05:52:49;6.30;;;2.27;;
15848;SDS011;8024;48.708;9.394;2023-09-30T05:55:17;4.43;;;2.40;;
15848;SDS011;8024;48.708;9.394;2023-09-30T05:57:45;4.20;;;2.73;;
15848;SDS011;8024;48.708;9.394;2023-09-30T06:00:14;5.40;;;2.13;;
15848;SDS011;8024;48.708;9.394;2023-09-30T06:02:47;4.17;;;2.80;;
15848;SDS011;8024;48.708;9.394;2023-09-30T06:05:16;3.20;;;2.30;;
15848;SDS011;8024;48.708;9.394;2023-09-30T06:07:44;5.40;;;2.80;;
15848;SDS011;8024;48.708;9.394;2023-09-30T06:10:12;4.77;;;3.17;;
15848;SDS011;8024;48.708;9.394;2023-09-30T06:12:41;6.40;;;3.27;;
15848;SDS011;8024;48.708;9.394;2023-09-30T06:15:08;4.07;;;3.00;;
15848;SDS011;8024;48.708;9.394;2023-09-30T06:17:37;4.40;;;2.90;;
15848;SDS011;8024;48.708;9.394;2023-09-30T06:20:04;4.70;;;3.50;;
15848;SDS011;8024;48.708;9.394;2023-09-30T06:22:34;4.90;;;3.23;;
15848;SDS011;8024;48.708;9.394;2023-09-30T06:25:02;5.00;;;3.30;;
15848;SDS011;8024;48.708;9.394;2023-09-30T06:27:29;5.47;;;2.93;;
15848;SDS011;8024;48.708;9.394;2023-09-30T06:29:56;4.70;;;3.27;;
15848;SDS011;8024;48.708;9.394;2023-09-30T06:32:24;4.60;;;3.40;;
15848;SDS011;8024;48.708;9.394;2023-09-30T06:34:52;5.63;;;3.47;;
15848;SDS011;8024;48.708;9.394;2023-09-30T06:37:19;8.00;;;3.53;;
15848;SDS011;8024;48.708;9.394;2023-09-30T06:39:47;6.03;;;3.23;;
15848;SDS011;8024;48.708;9.394;2023-09-30T06:42:14;6.07;;;3.80;;
15848;SDS011;8024;48.708;9.394;2023-09-30T06:44:42;7.27;;;3.77;;
15848;SDS011;8024;48.708;9.394;2023-09-30T06:47:09;8.47;;;4.03;;
15848;SDS011;8024;48.708;9.394;2023-09-30T06:49:37;8.33;;;4.40;;
15848;SDS011;8024;48.708;9.394;2023-09-30T06:52:06;6.50;;;3.87;;
15848;SDS011;8024;48.708;9.394;2023-09-30T06:54:34;5.77;;;3.73;;
15848;SDS011;8024;48.708;9.394;2023-09-30T06:57:02;6.73;;;3.97;;
15848;SDS011;8024;48.708;9.394;2023-09-30T06:59:29;4.63;;;3.33;;
15848;SDS011;8024;48.708;9.394;2023-09-30T07:01:58;7.93;;;4.13;;
15848;SDS011;8024;48.708;9.394;2023-09-30T07:04:25;5.23;;;4.03;;
15848;SDS011;8024;48.708;9.394;2023-09-30T07:06:52;4.27;;;3.40;;
15848;SDS011;8024;48.708;9.394;2023-09-30T07:09:21;6.50;;;3.27;;
15848;SDS011;8024;48.708;9.394;2023-09-30T07:11:48;5.00;;;3.20;;
15848;SDS011;8024;48.708;9.394;2023-09-30T07:14:15;6.10;;;3.60;;
15848;SDS011;8024;48.708;9.394;2023-09-30T07:16:42;4.00;;;3.17;;
15848;SDS011;8024;48.708;9.394;2023-09-30T07:19:09;4.63;;;3.07;;
15848;SDS011;8024;48.708;9.394;2023-09-30T07:21:36;5.40;;;3.50;;
15848;SDS011;8024;48.708;9.394;2023-09-30T07:24:04;4.80;;;3.20;;
15848;SDS011;8024;48.708;9.394;2023-09-30T07:26:33;5.07;;;2.97;;
15848;SDS011;8024;48.708;9.394;2023-09-30T07:29:00;4.70;;;3.30;;
15848;SDS011;8024;48.708;9.394;2023-09-30T07:31:32;8.07;;;2.90;;
15848;SDS011;8024;48.708;9.394;2023-09-30T07:34:00;6.90;;;3.47;;
15848;SDS011;8024;48.708;9.394;2023-09-30T07:36:28;4.83;;;3.13;;
15848;SDS011;8024;48.708;9.394;2023-09-30T07:38:55;4.60;;;2.70;;
15848;SDS011;8024;48.708;9.394;2023-09-30T07:41:22;4.23;;;3.07;;
15848;SDS011;8024;48.708;9.394;2023-09-30T07:43:50;5.77;;;2.80;;
15848;SDS011;8024;48.708;9.394;2023-09-30T07:46:18;7.30;;;3.53;;
15848;SDS011;8024;48.708;9.394;2023-09-30T07:48:45;6.07;;;3.13;;
15848;SDS011;8024;48.708;9.394;2023-09-30T07:51:12;3.43;;;2.97;;
15848;SDS011;8024;48.708;9.394;2023-09-30T07:53:40;5.00;;;2.80;;
15848;SDS011;8024;48.708;9.394;2023-09-30T07:56:07;4.60;;;2.70;;
15848;SDS011;8024;48.708;9.394;2023-09-30T07:58:34;4.07;;;2.87;;
15848;SDS011;8024;48.708;9.394;2023-09-30T08:01:03;3.70;;;2.73;;
15848;SDS011;8024;48.708;9.394;2023-09-30T08:03:30;5.27;;;3.33;;
15848;SDS011;8024;48.708;9.394;2023-09-30T08:05:57;4.97;;;3.17;;
15848;SDS011;8024;48.708;9.394;2023-09-30T08:08:24;3.97;;;3.17;;
15848;SDS011;8024;48.708;9.394;2023-09-30T08:10:51;5.87;;;2.50;;
15848;SDS011;8024;48.708;9.394;2023-09-30T08:13:20;5.80;;;3.00;;
15848;SDS011;8024;48.708;9.394;2023-09-30T08:15:48;5.53;;;2.93;;
15848;SDS011;8024;48.708;9.394;2023-09-30T08:18:17;3.07;;;2.63;;
15848;SDS011;8024;48.708;9.394;2023-09-30T08:20:44;5.90;;;2.70;;
15848;SDS011;8024;48.708;9.394;2023-09-30T08:23:11;6.90;;;2.93;;
15848;SDS011;8024;48.708;9.394;2023-09-30T08:25:38;3.43;;;2.40;;
15848;SDS011;8024;48.708;9.394;2023-09-30T08:28:05;6.07;;;2.77;;
15848;SDS011;8024;48.708;9.394;2023-09-30T08:30:34;4.93;;;2.33;;
15848;SDS011;8024;48.708;9.394;2023-09-30T08:33:02;5.27;;;2.70;;
15848;SDS011;8024;48.708;9.394;2023-09-30T08:35:34;5.50;;;3.10;;
15848;SDS011;8024;48.708;9.394;2023-09-30T08:38:03;5.30;;;2.80;;
15848;SDS011;8024;48.708;9.394;2023-09-30T08:40:30;4.30;;;2.70;;
15848;SDS011;8024;48.708;9.394;2023-09-30T08:42:58;3.30;;;2.57;;
15848;SDS011;8024;48.708;9.394;2023-09-30T08:45:27;7.03;;;3.07;;
15848;SDS011;8024;48.708;9.394;2023-09-30T08:47:56;6.43;;;2.97;;
15848;SDS011;8024;48.708;9.394;2023-09-30T08:50:25;3.27;;;2.70;;
15848;SDS011;8024;48.708;9.394;2023-09-30T08:52:54;4.70;;;2.63;;
15848;SDS011;8024;48.708;9.394;2023-09-30T08:55:22;4.80;;;2.47;;
15848;SDS011;8024;48.708;9.394;2023-09-30T08:57:52;5.60;;;2.90;;
15848;SDS011;8024;48.708;9.394;2023-09-30T09:00:20;5.60;;;3.30;;
15848;SDS011;8024;48.708;9.394;2023-09-30T09:02:47;8.60;;;3.27;;
15848;SDS011;8024;48.708;9.394;2023-09-30T09:05:16;4.03;;;2.73;;
15848;SDS011;8024;48.708;9.394;2023-09-30T09:07:43;4.67;;;2.77;;
15848;SDS011;8024;48.708;9.394;2023-09-30T09:10:13;3.60;;;3.00;;
15848;SDS011;8024;48.708;9.394;2023-09-30T09:12:40;5.10;;;3.10;;
15848;SDS011;8024;48.708;9.394;2023-09-30T09:15:19;4.63;;;3.13;;
15848;SDS011;8024;48.708;9.394;2023-09-30T09:17:47;4.37;;;3.43;;
15848;SDS011;8024;48.708;9.394;2023-09-30T09:20:16;6.33;;;3.87;;
15848;SDS011;8024;48.708;9.394;2023-09-30T09:22:46;7.47;;;3.50;;
15848;SDS011;8024;48.708;9.394;2023-09-30T09:25:17;4.90;;;2.93;;
15848;SDS011;8024;48.708;9.394;2023-09-30T09:27:44;6.37;;;3.20;;
15848;SDS011;8024;48.708;9.394;2023-09-30T09:30:15;5.63;;;3.33;;
15848;SDS011;8024;48.708;9.394;2023-09-30T09:32:52;5.33;;;3.60;;
15848;SDS011;8024;48.708;9.394;2023-09-30T09:35:20;4.57;;;3.67;;
15848;SDS011;8024;48.708;9.394;2023-09-30T09:37:57;4.27;;;3.03;;
15848;SDS011;8024;48.708;9.394;2023-09-30T09:40:26;8.03;;;2.97;;
15848;SDS011;8024;48.708;9.394;2023-09-30T09:42:54;6.23;;;3.27;;
15848;SDS011;8024;48.708;9.394;2023-09-30T09:45:22;5.83;;;3.70;;
15848;SDS011;8024;48.708;9.394;2023-09-30T09:47:50;6.47;;;3.30;;
15848;SDS011;8024;48.708;9.394;2023-09-30T09:50:18;6.23;;;3.57;;
15848;SDS011;8024;48.708;9.394;2023-09-30T09:52:47;4.07;;;2.80;;
15848;SDS011;8024;48.708;9.394;2023-09-30T09:55:16;8.80;;;3.30;;
15848;SDS011;8024;48.708;9.394;2023-09-30T09:57:45;5.73;;;2.77;;
15848;SDS011;8024;48.708;9.394;2023-09-30T10:00:15;3.60;;;2.43;;
15848;SDS011;8024;48.708;9.394;2023-09-30T10:02:44;3.40;;;2.33;;
15848;SDS011;8024;48.708;9.394;2023-09-30T10:05:12;6.33;;;2.77;;
15848;SDS011;8024;48.708;9.394;2023-09-30T10:07:41;4.60;;;2.67;;
15848;SDS011;8024;48.708;9.394;2023-09-30T10:10:12;3.90;;;2.97;;
15848;SDS011;8024;48.708;9.394;2023-09-30T10:12:42;4.87;;;2.80;;
15848;SDS011;8024;48.708;9.394;2023-09-30T10:18:05;4.03;;;2.93;;
15848;SDS011;8024;48.708;9.394;2023-09-30T10:20:34;4.27;;;2.97;;
15848;SDS011;8024;48.708;9.394;2023-09-30T10:23:21;5.37;;;3.23;;
15848;SDS011;8024;48.708;9.394;2023-09-30T10:25:52;4.97;;;2.80;;
15848;SDS011;8024;48.708;9.394;2023-09-30T10:28:40;6.13;;;2.73;;
15848;SDS011;8024;48.708;9.394;2023-09-30T10:31:12;4.60;;;2.97;;
15848;SDS011;8024;48.708;9.394;2023-09-30T10:36:46;5.57;;;2.70;;
15848;SDS011;8024;48.708;9.394;2023-09-30T10:39:17;5.80;;;2.87;;
15848;SDS011;8024;48.708;9.394;2023-09-30T10:51:01;6.70;;;3.87;;
15848;SDS011;8024;48.708;9.394;2023-09-30T10:53:41;7.13;;;3.63;;
15848;SDS011;8024;48.708;9.394;2023-09-30T10:56:12;7.57;;;3.57;;
15848;SDS011;8024;48.708;9.394;2023-09-30T10:58:41;6.13;;;3.30;;
15848;SDS011;8024;48.708;9.394;2023-09-30T11:01:08;7.10;;;3.73;;
15848;SDS011;8024;48.708;9.394;2023-09-30T11:03:37;4.23;;;3.10;;
15848;SDS011;8024;48.708;9.394;2023-09-30T11:06:05;5.67;;;3.50;;
15848;SDS011;8024;48.708;9.394;2023-09-30T11:08:32;6.97;;;3.33;;
15848;SDS011;8024;48.708;9.394;2023-09-30T11:11:00;11.40;;;3.47;;
15848;SDS011;8024;48.708;9.394;2023-09-30T11:13:31;4.70;;;2.70;;
15848;SDS011;8024;48.708;9.394;2023-09-30T11:16:00;5.93;;;2.85;;
15848;SDS011;8024;48.708;9.394;2023-09-30T11:18:29;4.57;;;2.42;;
15848;SDS011;8024;48.708;9.394;2023-09-30T11:21:05;6.32;;;2.95;;
15848;SDS011;8024;48.708;9.394;2023-09-30T11:23:34;5.80;;;2.85;;
15848;SDS011;8024;48.708;9.394;2023-09-30T11:26:02;5.00;;;2.53;;
15848;SDS011;8024;48.708;9.394;2023-09-30T11:28:37;4.87;;;3.10;;
15848;SDS011;8024;48.708;9.394;2023-09-30T11:31:07;5.30;;;3.10;;
15848;SDS011;8024;48.708;9.394;2023-09-30T11:33:52;6.33;;;3.23;;
15848;SDS011;8024;48.708;9.394;2023-09-30T11:36:23;8.13;;;3.90;;
15848;SDS011;8024;48.708;9.394;2023-09-30T11:38:52;6.57;;;3.70;;
15848;SDS011;8024;48.708;9.394;2023-09-30T11:41:19;6.33;;;2.77;;
15848;SDS011;8024;48.708;9.394;2023-09-30T11:44:00;5.83;;;3.10;;
15848;SDS011;8024;48.708;9.394;2023-09-30T11:46:30;6.03;;;3.10;;
15848;SDS011;8024;48.708;9.394;2023-09-30T11:48:59;8.57;;;3.63;;
15848;SDS011;8024;48.708;9.394;2023-09-30T11:51:29;6.87;;;3.43;;
15848;SDS011;8024;48.708;9.394;2023-09-30T11:53:57;6.13;;;2.93;;
15848;SDS011;8024;48.708;9.394;2023-09-30T11:56:27;8.10;;;3.90;;
15848;SDS011;8024;48.708;9.394;2023-09-30T11:58:55;6.23;;;3.73;;
15848;SDS011;8024;48.708;9.394;2023-09-30T12:01:23;6.47;;;3.70;;
15848;SDS011;8024;48.708;9.394;2023-09-30T12:03:51;7.13;;;3.70;;
15848;SDS011;8024;48.708;9.394;2023-09-30T12:06:21;6.13;;;3.80;;
15848;SDS011;8024;48.708;9.394;2023-09-30T12:08:50;8.03;;;3.80;;
15848;SDS011;8024;48.708;9.394;2023-09-30T12:11:19;5.77;;;3.27;;
15848;SDS011;8024;48.708;9.394;2023-09-30T12:13:47;10.43;;;4.23;;
15848;SDS011;8024;48.708;9.394;2023-09-30T12:16:14;8.70;;;4.33;;
15848;SDS011;8024;48.708;9.394;2023-09-30T12:18:41;8.90;;;3.83;;
15848;SDS011;8024;48.708;9.394;2023-09-30T12:21:09;7.50;;;3.67;;
15848;SDS011;8024;48.708;9.394;2023-09-30T12:23:38;6.53;;;3.53;;
15848;SDS011;8024;48.708;9.394;2023-09-30T12:26:07;7.27;;;3.63;;
15848;SDS011;8024;48.708;9.394;2023-09-30T12:28:34;5.37;;;3.57;;
15848;SDS011;8024;48.708;9.394;2023-09-30T12:31:02;6.03;;;3.33;;
15848;SDS011;8024;48.708;9.394;2023-09-30T12:33:30;6.20;;;3.50;;
15848;SDS011;8024;48.708;9.394;2023-09-30T12:35:58;9.20;;;3.67;;
15848;SDS011;8024;48.708;9.394;2023-09-30T12:38:25;6.13;;;3.80;;
15848;SDS011;8024;48.708;9.394;2023-09-30T12:40:53;7.17;;;3.70;;
15848;SDS011;8024;48.708;9.394;2023-09-30T12:43:22;6.73;;;3.10;;
15848;SDS011;8024;48.708;9.394;2023-09-30T12:45:50;6.47;;;3.80;;
15848;SDS011;8024;48.708;9.394;2023-09-30T12:48:17;7.60;;;3.83;;
15848;SDS011;8024;48.708;9.394;2023-09-30T12:50:44;7.50;;;4.10;;
15848;SDS011;8024;48.708;9.394;2023-09-30T12:53:11;6.90;;;3.53;;
15848;SDS011;8024;48.708;9.394;2023-09-30T12:55:38;7.23;;;3.20;;
15848;SDS011;8024;48.708;9.394;2023-09-30T12:58:06;6.40;;;3.33;;
15848;SDS011;8024;48.708;9.394;2023-09-30T13:00:36;8.30;;;3.67;;
15848;SDS011;8024;48.708;9.394;2023-09-30T13:03:03;7.10;;;3.50;;
15848;SDS011;8024;48.708;9.394;2023-09-30T13:05:32;6.53;;;3.23;;
15848;SDS011;8024;48.708;9.394;2023-09-30T13:08:00;6.63;;;3.90;;
15848;SDS011;8024;48.708;9.394;2023-09-30T13:10:27;8.03;;;3.20;;
15848;SDS011;8024;48.708;9.394;2023-09-30T13:12:55;5.97;;;3.30;;
15848;SDS011;8024;48.708;9.394;2023-09-30T13:15:22;7.87;;;3.97;;
15848;SDS011;8024;48.708;9.394;2023-09-30T13:17:52;7.67;;;3.40;;
15848;SDS011;8024;48.708;9.394;2023-09-30T13:20:19;8.40;;;3.13;;
15848;SDS011;8024;48.708;9.394;2023-09-30T13:22:47;5.77;;;3.57;;
15848;SDS011;8024;48.708;9.394;2023-09-30T13:25:15;7.60;;;2.77;;
15848;SDS011;8024;48.708;9.394;2023-09-30T13:27:42;6.50;;;3.30;;
15848;SDS011;8024;48.708;9.394;2023-09-30T13:30:09;7.03;;;3.07;;
15848;SDS011;8024;48.708;9.394;2023-09-30T13:32:37;5.53;;;3.20;;
15848;SDS011;8024;48.708;9.394;2023-09-30T13:35:06;7.33;;;3.57;;
15848;SDS011;8024;48.708;9.394;2023-09-30T13:37:33;7.17;;;3.47;;
15848;SDS011;8024;48.708;9.394;2023-09-30T13:40:02;7.30;;;3.17;;
15848;SDS011;8024;48.708;9.394;2023-09-30T13:42:33;5.80;;;3.60;;
15848;SDS011;8024;48.708;9.394;2023-09-30T13:45:00;6.63;;;3.30;;
15848;SDS011;8024;48.708;9.394;2023-09-30T13:47:28;8.83;;;3.50;;
15848;SDS011;8024;48.708;9.394;2023-09-30T13:49:55;6.50;;;3.20;;
15848;SDS011;8024;48.708;9.394;2023-09-30T13:52:24;6.40;;;3.70;;
15848;SDS011;8024;48.708;9.394;2023-09-30T13:54:51;6.23;;;3.20;;
15848;SDS011;8024;48.708;9.394;2023-09-30T13:57:19;7.07;;;4.00;;
15848;SDS011;8024;48.708;9.394;2023-09-30T13:59:46;6.53;;;3.50;;
15848;SDS011;8024;48.708;9.394;2023-09-30T14:02:13;6.63;;;3.17;;
15848;SDS011;8024;48.708;9.394;2023-09-30T14:04:40;5.50;;;3.20;;
15848;SDS011;8024;48.708;9.394;2023-09-30T14:07:08;5.40;;;3.23;;
15848;SDS011;8024;48.708;9.394;2023-09-30T14:09:36;6.20;;;3.30;;
15848;SDS011;8024;48.708;9.394;2023-09-30T14:12:03;6.27;;;3.03;;
15848;SDS011;8024;48.708;9.394;2023-09-30T14:14:31;7.63;;;3.23;;
15848;SDS011;8024;48.708;9.394;2023-09-30T14:16:59;7.10;;;3.23;;
15848;SDS011;8024;48.708;9.394;2023-09-30T14:19:32;7.93;;;3.73;;
15848;SDS011;8024;48.708;9.394;2023-09-30T14:21:59;6.13;;;3.03;;
15848;SDS011;8024;48.708;9.394;2023-09-30T14:24:27;6.00;;;3.10;;
15848;SDS011;8024;48.708;9.394;2023-09-30T14:26:55;8.17;;;3.53;;
15848;SDS011;8024;48.708;9.394;2023-09-30T14:29:23;6.20;;;3.47;;
15848;SDS011;8024;48.708;9.394;2023-09-30T14:31:51;7.40;;;3.17;;
15848;SDS011;8024;48.708;9.394;2023-09-30T14:34:18;6.33;;;3.37;;
15848;SDS011;8024;48.708;9.394;2023-09-30T14:36:45;6.77;;;3.97;;
15848;SDS011;8024;48.708;9.394;2023-09-30T14:39:12;9.50;;;4.00;;
15848;SDS011;8024;48.708;9.394;2023-09-30T14:41:41;11.20;;;3.87;;
15848;SDS011;8024;48.708;9.394;2023-09-30T14:44:09;5.90;;;3.33;;
15848;SDS011;8024;48.708;9.394;2023-09-30T14:46:37;6.20;;;3.10;;
15848;SDS011;8024;48.708;9.394;2023-09-30T14:49:04;5.27;;;3.43;;
15848;SDS011;8024;48.708;9.394;2023-09-30T14:51:32;6.63;;;3.60;;
15848;SDS011;8024;48.708;9.394;2023-09-30T14:53:59;5.83;;;2.87;;
15848;SDS011;8024;48.708;9.394;2023-09-30T14:56:27;6.90;;;3.13;;
15848;SDS011;8024;48.708;9.394;2023-09-30T14:58:54;7.17;;;3.30;;
15848;SDS011;8024;48.708;9.394;2023-09-30T15:01:22;5.53;;;3.23;;
15848;SDS011;8024;48.708;9.394;2023-09-30T15:03:51;4.57;;;3.03;;
15848;SDS011;8024;48.708;9.394;2023-09-30T15:06:18;7.50;;;3.80;;
15848;SDS011;8024;48.708;9.394;2023-09-30T15:08:46;8.23;;;3.00;;
15848;SDS011;8024;48.708;9.394;2023-09-30T15:11:13;7.17;;;2.97;;
15848;SDS011;8024;48.708;9.394;2023-09-30T15:13:41;8.93;;;3.57;;
15848;SDS011;8024;48.708;9.394;2023-09-30T15:16:17;7.23;;;3.27;;
15848;SDS011;8024;48.708;9.394;2023-09-30T15:18:47;4.60;;;2.90;;
15848;SDS011;8024;48.708;9.394;2023-09-30T15:21:14;6.67;;;3.30;;
15848;SDS011;8024;48.708;9.394;2023-09-30T15:23:42;5.43;;;3.27;;